Time;durP1;ratioP1;P1;durP2;ratioP2;P2;SDS_P1;SDS_P2;PMS_P1;PMS_P2;Temp;Humidity;BMP_temperature;BMP_pressure;BME280_temperature;BME280_humidity;BME280_pressure;Samples;Min_cycle;Max_cycle;Signal;HPM_P1;HPM_P2
2024/01/17 00:02:48;;;;;;;;;;;;;;;-2.47;79.94;97649.09;10360966;28;20140;-47
2024/01/17 00:07:47;;;;;;;67.13;38.25;;;;;;;-2.52;80.38;97635.31;10361110;28;20385;-47
2024/01/17 00:12:46;;;;;;;91.97;49.10;;;;;;;-2.75;80.27;97599.50;10360680;28;20044;-47
2024/01/17 00:17:48;;;;;;;86.18;47.47;;;;;;;-2.61;80.07;97615.41;10360278;28;20049;-48
2024/01/17 00:22:49;;;;;;;93.70;50.70;;;;;;;-2.73;80.11;97597.03;10360555;28;20061;-47
2024/01/17 00:27:49;;;;;;;92.13;47.67;;;;;;;-2.67;79.75;97609.16;10359655;28;20071;-48
2024/01/17 00:32:48;;;;;;;89.93;47.03;;;;;;;-2.96;80.16;97581.53;10360470;28;20090;-47
2024/01/17 00:37:47;;;;;;;76.13;43.70;;;;;;;-2.70;79.93;97630.19;10359922;28;20107;-47
2024/01/17 00:42:46;;;;;;;83.80;47.70;;;;;;;-2.87;79.88;97600.56;10360099;28;20036;-47
2024/01/17 00:47:45;;;;;;;85.93;45.83;;;;;;;-3.29;80.43;97540.16;10357408;28;20115;-47
2024/01/17 00:52:44;;;;;;;85.35;45.70;;;;;;;-3.41;80.45;97526.84;10359255;28;20060;-49
2024/01/17 00:57:43;;;;;;;97.47;46.42;;;;;;;-3.10;80.50;97592.69;10359064;28;20035;-49
2024/01/17 01:02:43;;;;;;;105.65;53.05;;;;;;;-2.98;81.18;97623.75;10359709;28;20528;-47
2024/01/17 01:07:42;;;;;;;94.90;48.13;;;;;;;-3.02;81.09;97621.00;10358991;28;20068;-48
2024/01/17 01:12:40;;;;;;;84.88;46.47;;;;;;;-3.13;81.09;97593.41;10359745;28;20095;-48
2024/01/17 01:17:39;;;;;;;80.82;42.63;;;;;;;-3.50;80.71;97519.69;10358987;28;20482;-47
2024/01/17 01:22:38;;;;;;;86.55;44.20;;;;;;;-3.65;80.71;97506.22;10357533;28;20460;-49
2024/01/17 01:27:37;;;;;;;137.15;63.67;;;;;;;-3.19;81.45;97602.38;10365553;28;20426;-48
2024/01/17 01:32:36;;;;;;;55.78;32.42;;;;;;;-3.21;81.18;97583.66;10367082;28;20035;-48
2024/01/17 01:37:35;;;;;;;53.05;31.80;;;;;;;-3.34;81.29;97593.22;10366035;28;20036;-47
2024/01/17 01:42:35;;;;;;;60.38;34.42;;;;;;;-3.44;81.37;97611.28;10366400;28;20092;-47
2024/01/17 01:47:34;;;;;;;55.22;32.70;;;;;;;-3.58;81.58;97576.75;10366092;28;20064;-47
2024/01/17 01:52:35;;;;;;;84.35;50.08;;;;;;;-3.33;81.39;97616.91;10366122;28;20566;-48
2024/01/17 01:57:39;;;;;;;65.20;37.38;;;;;;;-3.72;80.82;97558.28;10365714;28;20498;-48
2024/01/17 02:02:38;;;;;;;69.15;37.05;;;;;;;-3.39;81.53;97611.53;10365587;28;20209;-49
2024/01/17 02:07:37;;;;;;;64.10;35.95;;;;;;;-3.56;81.34;97573.47;10379890;28;20064;-48
2024/01/17 02:12:36;;;;;;;65.68;38.15;;;;;;;-3.26;81.39;97620.66;10365500;28;20044;-47
2024/01/17 02:17:35;;;;;;;;;;;;;;;-3.34;81.98;97608.44;10365055;28;20056;-48
2024/01/17 02:22:34;;;;;;;75.20;42.10;;;;;;;-3.31;81.88;97596.72;10364300;28;19948;-47
2024/01/17 02:27:33;;;;;;;73.95;39.95;;;;;;;-3.21;81.55;97604.84;10364362;28;20052;-48
2024/01/17 02:32:35;;;;;;;75.18;39.85;;;;;;;-3.16;81.71;97584.78;10364499;28;20495;-49
2024/01/17 02:37:33;;;;;;;77.00;40.47;;;;;;;-3.26;81.65;97544.53;10364427;28;20077;-49
2024/01/17 02:42:32;;;;;;;80.18;42.28;;;;;;;-3.44;82.00;97529.25;10362228;28;20048;-47
2024/01/17 02:47:31;;;;;;;66.45;37.63;;;;;;;-3.39;82.64;97554.06;10363214;28;20039;-47
2024/01/17 02:52:30;;;;;;;74.90;43.13;;;;;;;-3.24;82.60;97568.31;10364043;28;20096;-47
2024/01/17 02:57:29;;;;;;;75.50;42.72;;;;;;;-3.22;82.47;97571.78;10363903;28;20032;-48
2024/01/17 03:02:28;;;;;;;86.57;45.45;;;;;;;-3.07;82.07;97569.13;10362990;28;20795;-48
2024/01/17 03:07:27;;;;;;;89.53;46.65;;;;;;;-3.12;82.10;97538.44;10363072;28;20489;-48
2024/01/17 03:12:27;;;;;;;80.90;45.95;;;;;;;-2.88;81.82;97563.28;10363284;28;20031;-48
2024/01/17 03:17:26;;;;;;;82.20;44.95;;;;;;;-3.17;82.38;97500.16;10360668;28;20068;-48
2024/01/17 03:22:25;;;;;;;95.78;50.03;;;;;;;-2.92;81.90;97514.91;10361749;28;20533;-49
2024/01/17 03:27:24;;;;;;;76.75;43.08;;;;;;;-2.72;82.12;97536.13;10362291;28;20563;-49
2024/01/17 03:32:23;;;;;;;87.25;47.58;;;;;;;-2.67;82.38;97565.97;10362604;28;20025;-48
2024/01/17 03:37:22;;;;;;;69.55;40.50;;;;;;;-2.33;81.41;97554.03;10362325;28;20494;-48
2024/01/17 03:42:21;;;;;;;74.53;41.45;;;;;;;-2.27;81.33;97551.75;10361888;28;20771;-48
2024/01/17 03:47:20;;;;;;;77.57;42.80;;;;;;;-2.46;81.31;97502.59;10360319;28;20352;-48
2024/01/17 03:52:20;;;;;;;77.60;43.92;;;;;;;-2.39;81.33;97509.69;10360830;28;20682;-48
2024/01/17 03:57:19;;;;;;;88.28;49.35;;;;;;;-2.74;80.65;97440.38;10359015;28;20071;-48
2024/01/17 04:02:18;;;;;;;104.88;52.90;;;;;;;-2.21;80.17;97538.47;10360755;28;20037;-48
2024/01/17 04:07:20;;;;;;;84.38;45.35;;;;;;;-2.91;80.51;97472.59;10360806;28;20128;-48
2024/01/17 04:12:20;;;;;;;68.85;34.97;;;;;;;-2.59;79.57;97537.59;10359635;28;20108;-48
2024/01/17 04:17:19;;;;;;;67.63;35.45;;;;;;;-2.68;80.42;97547.31;10359622;28;20075;-48
2024/01/17 04:22:18;;;;;;;;;;;;;;;-2.53;80.17;97573.44;10359981;28;20076;-47
2024/01/17 04:27:17;;;;;;;70.85;38.22;;;;;;;-2.72;79.86;97517.50;10360080;28;20002;-48
2024/01/17 04:32:16;;;;;;;82.75;47.42;;;;;;;-2.45;79.72;97560.22;10360822;28;20119;-48
2024/01/17 04:37:16;;;;;;;94.97;51.88;;;;;;;-2.85;80.55;97515.16;10357853;28;20056;-48
2024/01/17 04:42:15;;;;;;;91.22;50.13;;;;;;;-2.92;80.89;97547.91;10359302;28;20140;-48
2024/01/17 04:47:14;;;;;;;96.55;52.13;;;;;;;-3.27;81.30;97547.84;10360048;28;20068;-48
2024/01/17 04:52:17;;;;;;;105.70;54.45;;;;;;;-3.05;81.23;97573.47;10359924;28;20033;-48
2024/01/17 04:57:16;;;;;;;63.72;36.83;;;;;;;-3.89;81.11;97458.56;10360240;28;20164;-48
2024/01/17 05:02:15;;;;;;;65.40;38.65;;;;;;;-3.74;81.83;97504.09;10366753;28;20901;-49
2024/01/17 05:07:14;;;;;;;64.88;36.67;;;;;;;-3.54;81.53;97553.28;10367542;28;20781;-48
2024/01/17 05:12:15;;;;;;;68.03;38.40;;;;;;;-3.52;81.99;97536.47;10367699;28;20960;-48
2024/01/17 05:17:15;;;;;;;82.63;42.42;;;;;;;-3.63;81.85;97512.25;10367496;28;20096;-48
2024/01/17 05:22:14;;;;;;;89.75;47.22;;;;;;;-3.25;81.78;97557.25;10366802;28;20944;-48
2024/01/17 05:27:13;;;;;;;122.97;67.65;;;;;;;-3.29;81.98;97555.38;10366969;28;20911;-48
2024/01/17 05:32:12;;;;;;;130.30;71.10;;;;;;;-3.56;82.32;97499.06;10366152;28;20099;-48
2024/01/17 05:37:11;;;;;;;111.38;60.38;;;;;;;-3.47;82.80;97540.13;10366439;28;20027;-48
2024/01/17 05:42:10;;;;;;;78.13;43.03;;;;;;;-3.79;85.39;97510.59;10366506;28;20040;-47
2024/01/17 05:47:10;;;;;;;71.90;40.50;;;;;;;-3.72;85.49;97521.91;10364504;28;20059;-47
2024/01/17 05:52:09;;;;;;;81.72;46.03;;;;;;;-3.95;85.41;97468.41;10365554;28;20057;-48
2024/01/17 05:57:08;;;;;;;88.32;50.10;;;;;;;-3.88;86.74;97550.69;10363130;28;20119;-48
2024/01/17 06:02:07;;;;;;;63.90;36.38;;;;;;;-3.78;86.06;97489.53;10365638;28;20056;-47
2024/01/17 06:07:06;;;;;;;60.25;34.15;;;;;;;-3.73;86.28;97490.63;10365235;28;20113;-47
2024/01/17 06:12:05;;;;;;;61.22;31.45;;;;;;;-3.40;84.95;97529.47;10365026;28;20021;-49
2024/01/17 06:17:05;;;;;;;57.13;33.10;;;;;;;-3.36;85.38;97531.38;10364920;28;20577;-48
2024/01/17 06:22:04;;;;;;;51.60;29.58;;;;;;;-3.25;84.40;97526.81;10363998;28;20069;-48
2024/01/17 06:27:03;;;;;;;108.72;72.82;;;;;;;-2.80;84.33;97577.22;10364643;28;20036;-48
2024/01/17 06:32:03;;;;;;;95.00;58.58;;;;;;;-2.57;84.13;97565.59;10363601;28;20758;-48
2024/01/17 06:37:03;;;;;;;107.60;69.78;;;;;;;-2.51;84.05;97535.41;10360719;28;20063;-48
2024/01/17 06:42:03;;;;;;;61.33;34.85;;;;;;;-2.82;82.76;97492.47;10363531;28;20196;-48
2024/01/17 06:47:03;;;;;;;60.38;34.00;;;;;;;-3.51;84.34;97436.75;10363669;28;20068;-49
2024/01/17 06:52:02;;;;;;;54.97;29.52;;;;;;;-2.49;83.75;97549.06;10363859;28;20076;-49
2024/01/17 06:57:01;;;;;;;99.40;63.50;;;;;;;-2.30;82.84;97469.44;10363682;28;20056;-50
2024/01/17 07:02:01;;;;;;;83.05;53.40;;;;;;;-1.84;82.41;97476.53;10364034;28;20036;-50
2024/01/17 07:07:00;;;;;;;66.07;41.33;;;;;;;-1.47;81.76;97465.34;10362188;28;20064;-49
2024/01/17 07:11:59;;;;;;;79.65;42.45;;;;;;;-1.09;80.33;97494.06;10362855;28;20032;-49
2024/01/17 07:16:58;;;;;;;68.55;40.60;;;;;;;-1.31;79.75;97409.16;10362080;28;20513;-52
2024/01/17 07:21:57;;;;;;;45.55;29.90;;;;;;;-0.38;78.75;97524.00;10361235;28;20039;-51
2024/01/17 07:26:56;;;;;;;51.13;31.80;;;;;;;-0.26;77.36;97464.09;10361249;28;20052;-49
2024/01/17 07:31:54;;;;;;;56.00;35.42;;;;;;;-0.23;77.18;97431.03;10361713;28;20039;-49
2024/01/17 07:36:53;;;;;;;55.58;36.03;;;;;;;-0.69;75.97;97335.97;10361026;28;20032;-49
2024/01/17 07:41:55;;;;;;;65.40;41.63;;;;;;;-0.13;75.90;97377.03;10360821;28;20059;-49
2024/01/17 07:46:54;;;;;;;79.60;49.65;;;;;;;0.75;75.06;97462.47;10361296;28;20057;-50
2024/01/17 07:51:54;;;;;;;60.80;37.42;;;;;;;1.11;74.20;97488.34;10360986;28;20157;-49
2024/01/17 07:56:53;;;;;;;58.42;39.03;;;;;;;1.68;73.26;97484.97;10358105;28;20060;-52
2024/01/17 08:01:52;;;;;;;28.80;18.88;;;;;;;1.73;71.32;97434.78;10343703;28;20450;-49
2024/01/17 08:06:51;;;;;;;5.60;4.43;;;;;;;2.66;68.14;97433.00;10354095;28;20802;-50
2024/01/17 08:11:51;;;;;;;8.13;5.05;;;;;;;3.73;62.36;97470.50;10355484;28;20475;-49
2024/01/17 08:16:51;;;;;;;5.30;4.28;;;;;;;4.28;58.46;97427.94;10352943;28;20056;-49
2024/01/17 08:21:51;;;;;;;6.68;4.75;;;;;;;5.11;56.51;97472.22;10354201;28;20112;-50
2024/01/17 08:26:50;;;;;;;7.05;5.18;;;;;;;5.54;54.36;97463.44;10354451;28;20075;-49
2024/01/17 08:31:49;;;;;;;5.97;5.03;;;;;;;5.59;52.63;97395.72;10355658;28;20033;-47
2024/01/17 08:36:48;;;;;;;7.05;4.80;;;;;;;6.17;51.05;97453.94;10366432;28;20520;-47
2024/01/17 08:41:47;;;;;;;5.13;4.72;;;;;;;6.52;49.87;97468.06;10363534;28;20530;-46
2024/01/17 08:46:48;;;;;;;5.63;5.13;;;;;;;6.80;48.10;97474.38;10367217;28;20442;-48
2024/01/17 08:51:46;;;;;;;5.90;5.00;;;;;;;7.03;48.55;97466.84;10364866;28;20072;-48
2024/01/17 08:56:46;;;;;;;6.65;5.75;;;;;;;7.34;47.54;97461.91;10365064;28;20143;-48
2024/01/17 09:01:46;;;;;;;6.93;6.07;;;;;;;7.71;46.01;97467.31;10363336;28;20119;-48
2024/01/17 09:06:45;;;;;;;6.63;5.40;;;;;;;7.96;46.32;97495.00;10366605;28;20107;-49
2024/01/17 09:11:44;;;;;;;6.00;5.13;;;;;;;8.21;45.06;97479.63;10361931;28;20029;-50
2024/01/17 09:16:43;;;;;;;7.47;5.93;;;;;;;8.56;46.02;97484.06;10362681;28;21079;-49
2024/01/17 09:21:42;;;;;;;9.43;5.88;;;;;;;8.80;45.19;97476.34;10360753;28;20119;-49
2024/01/17 09:26:41;;;;;;;7.68;6.32;;;;;;;9.00;44.76;97467.75;10365333;28;20041;-49
2024/01/17 09:31:40;;;;;;;7.82;6.20;;;;;;;9.28;44.11;97455.66;10359407;28;20044;-49
2024/01/17 09:36:38;;;;;;;6.88;6.13;;;;;;;9.38;44.09;97444.47;10364640;28;20131;-50
2024/01/17 09:41:37;;;;;;;9.05;5.53;;;;;;;9.65;44.02;97451.34;10364977;28;20156;-50
2024/01/17 09:46:40;;;;;;;6.88;5.72;;;;;;;9.74;43.28;97443.50;10363266;28;20095;-49
2024/01/17 09:51:40;;;;;;;6.45;5.20;;;;;;;9.35;42.67;97413.41;10365558;28;20060;-50
2024/01/17 09:56:42;;;;;;;6.63;5.95;;;;;;;9.30;43.17;97369.38;10358611;28;20140;-49
2024/01/17 10:01:41;;;;;;;8.40;5.78;;;;;;;9.69;42.93;97411.56;10360993;28;20136;-51
2024/01/17 10:06:44;;;;;;;8.18;6.13;;;;;;;9.45;42.82;97357.25;10361552;28;20120;-48
2024/01/17 10:11:43;;;;;;;6.78;6.00;;;;;;;9.59;41.39;97394.34;10360559;28;20493;-49
2024/01/17 10:16:42;;;;;;;8.38;6.13;;;;;;;9.50;42.03;97381.41;10350915;28;20120;-51
2024/01/17 10:21:43;;;;;;;;;;;;;;;9.43;40.89;97406.47;10362480;28;20127;-49
2024/01/17 10:26:43;;;;;;;7.18;6.57;;;;;;;9.35;42.07;97378.00;10356999;28;20011;-49
2024/01/17 10:31:42;;;;;;;6.50;5.72;;;;;;;8.25;41.96;97203.06;10357683;28;20056;-51
2024/01/17 10:36:44;;;;;;;7.40;6.32;;;;;;;9.37;42.36;97375.38;10358808;28;20072;-49
2024/01/17 10:41:54;;;;;;;8.30;6.85;;;;;;;9.26;42.22;97325.34;10363452;28;20124;-51
2024/01/17 10:46:54;;;;;;;8.38;6.75;;;;;;;9.80;42.21;97379.59;10355603;28;20128;-49
2024/01/17 10:52:08;;;;;;;7.88;7.07;;;;;;;9.92;42.07;97343.25;10361114;28;20115;-50
2024/01/17 10:57:09;;;;;;;7.18;6.43;;;;;;;9.87;42.42;97306.13;10357377;28;20064;-46
2024/01/17 11:02:19;;;;;;;11.35;6.82;;;;;;;10.20;42.11;97320.63;10358033;28;20605;-47
2024/01/17 11:07:19;;;;;;;10.18;6.07;;;;;;;10.22;41.50;97328.41;10358869;28;20068;-47
2024/01/17 11:12:20;;;;;;;11.38;6.70;;;;;;;10.15;41.09;97297.31;10357770;28;20049;-49
2024/01/17 11:17:20;;;;;;;15.68;7.28;;;;;;;10.30;41.18;97300.66;10356757;28;20092;-48
2024/01/17 11:22:21;;;;;;;6.35;5.72;;;;;;;10.14;41.91;97277.47;10355624;28;20190;-48
2024/01/17 11:27:52;;;;;;;6.72;6.05;;;;;;;10.53;41.85;97316.06;10360891;28;20064;-49
2024/01/17 11:33:13;;;;;;;8.60;5.70;;;;;;;10.53;42.41;97316.06;10330362;28;20156;-48
2024/01/17 11:38:24;;;;;;;7.35;6.15;;;;;;;10.67;41.77;97314.22;10331879;28;20140;-47
2024/01/17 11:43:29;;;;;;;8.13;6.97;;;;;;;10.62;41.68;97306.47;10331257;28;20156;-47
2024/01/17 11:48:30;;;;;;;6.97;6.30;;;;;;;10.51;41.98;97316.06;10341516;28;20151;-48
2024/01/17 11:53:30;;;;;;;9.20;6.97;;;;;;;10.78;42.43;97301.16;10352718;28;20581;-48
2024/01/17 11:58:48;;;;;;;7.10;6.20;;;;;;;10.97;40.94;97301.88;10356453;28;20100;-49
2024/01/17 12:03:47;;;;;;;7.78;6.70;;;;;;;11.19;41.85;97286.91;10356175;28;20108;-48
2024/01/17 12:08:48;;;;;;;10.75;8.63;;;;;;;11.32;41.49;97269.47;10344526;28;20111;-49
2024/01/17 12:13:52;;;;;;;6.90;6.20;;;;;;;11.58;42.05;97266.53;10332057;28;20119;-48
2024/01/17 12:18:58;;;;;;;9.35;6.93;;;;;;;11.75;41.27;97277.56;10329134;28;20123;-47
2024/01/17 12:23:58;;;;;;;8.02;6.28;;;;;;;12.00;40.74;97272.03;10328423;28;20043;-49
2024/01/17 12:29:09;;;;;;;;;;;;;;;12.09;40.77;97282.31;10351491;28;20164;-48
2024/01/17 12:34:10;;;;;;;8.13;7.07;;;;;;;12.07;40.80;97276.28;10339327;28;20031;-51
2024/01/17 12:39:10;;;;;;;8.35;6.65;;;;;;;11.66;40.10;97195.38;10341367;28;20132;-49
2024/01/17 12:44:10;;;;;;;7.93;6.57;;;;;;;11.88;40.32;97268.72;10348286;28;20120;-48
2024/01/17 12:49:13;;;;;;;7.28;6.32;;;;;;;11.78;40.56;97272.34;10341924;28;20112;-49
2024/01/17 12:54:17;;;;;;;7.35;6.60;;;;;;;11.73;40.61;97263.72;10343632;28;20120;-50
2024/01/17 12:59:16;;;;;;;15.95;6.20;;;;;;;11.28;40.84;97182.06;10331737;28;20128;-49
2024/01/17 13:04:15;;;;;;;9.05;7.43;;;;;;;11.56;41.41;97242.31;10352697;28;20060;-48
2024/01/17 13:09:17;;;;;;;8.27;6.43;;;;;;;11.68;41.58;97275.94;10353285;28;20116;-48
2024/01/17 13:14:21;;;;;;;8.98;6.65;;;;;;;11.78;41.81;97261.94;10354682;28;20140;-50
2024/01/17 13:19:20;;;;;;;8.23;6.20;;;;;;;11.74;41.75;97256.81;10354664;28;20123;-50
2024/01/17 13:24:19;;;;;;;7.75;6.75;;;;;;;11.64;42.38;97246.53;10362426;28;20147;-48
2024/01/17 13:29:19;;;;;;;9.13;6.65;;;;;;;11.71;42.38;97243.84;10363038;28;20136;-48
2024/01/17 13:34:18;;;;;;;9.00;6.93;;;;;;;11.72;41.57;97230.84;10362798;28;20450;-51
2024/01/17 13:39:17;;;;;;;8.63;7.65;;;;;;;11.51;41.76;97220.75;10363165;28;20060;-47
2024/01/17 13:44:20;;;;;;;8.68;7.70;;;;;;;11.34;41.60;97207.94;10356742;28;20029;-47
2024/01/17 13:49:24;;;;;;;9.05;7.22;;;;;;;11.23;42.10;97174.34;10352434;28;20123;-49
2024/01/17 13:54:23;;;;;;;9.90;6.68;;;;;;;11.22;42.09;97182.97;10337868;28;20124;-49
2024/01/17 13:59:22;;;;;;;11.43;7.30;;;;;;;11.32;41.89;97197.59;10336863;28;20025;-51
2024/01/17 14:04:22;;;;;;;7.30;6.28;;;;;;;11.35;42.15;97215.72;10348906;28;20033;-48
2024/01/17 14:09:23;;;;;;;7.05;6.35;;;;;;;11.33;42.52;97195.84;10360120;28;20061;-49
2024/01/17 14:14:22;;;;;;;8.15;7.35;;;;;;;11.31;42.84;97219.22;10349916;28;20489;-50
2024/01/17 14:19:21;;;;;;;9.05;6.85;;;;;;;11.27;43.31;97217.56;10332874;28;20504;-49
2024/01/17 14:24:20;;;;;;;7.53;6.75;;;;;;;11.13;43.43;97183.13;10335164;28;20814;-47
2024/01/17 14:29:19;;;;;;;7.82;6.50;;;;;;;10.23;43.21;97026.72;10351940;28;20083;-48
2024/01/17 14:34:20;;;;;;;8.27;6.05;;;;;;;10.92;43.46;97163.47;10359911;28;20020;-47
2024/01/17 14:39:22;;;;;;;8.23;7.15;;;;;;;10.96;43.41;97196.28;10360793;28;20116;-48
2024/01/17 14:44:21;;;;;;;7.57;6.72;;;;;;;10.86;43.40;97190.31;10360191;28;20135;-48
2024/01/17 14:49:20;;;;;;;8.15;6.82;;;;;;;10.86;43.96;97195.50;10360826;28;20040;-50
2024/01/17 14:54:19;;;;;;;8.38;7.30;;;;;;;10.75;43.71;97197.34;10359777;28;20071;-49
2024/01/17 14:59:18;;;;;;;10.55;7.55;;;;;;;10.65;43.91;97200.94;10359751;28;20060;-49
2024/01/17 15:04:17;;;;;;;10.07;7.05;;;;;;;10.54;44.40;97220.06;10359421;28;20033;-49
2024/01/17 15:09:16;;;;;;;10.43;7.55;;;;;;;10.13;44.80;97133.13;10357927;28;20033;-48
2024/01/17 15:14:15;;;;;;;11.40;6.72;;;;;;;10.64;44.37;97231.22;10360224;28;20040;-49
2024/01/17 15:19:14;;;;;;;9.07;7.13;;;;;;;10.67;44.52;97217.34;10352482;28;20688;-48
2024/01/17 15:24:13;;;;;;;8.50;7.57;;;;;;;10.46;44.99;97215.81;10343363;28;20056;-51
2024/01/17 15:29:14;;;;;;;10.38;8.82;;;;;;;10.36;44.34;97195.16;10334816;28;20406;-49
2024/01/17 15:34:13;;;;;;;12.88;9.73;;;;;;;10.20;44.83;97191.81;10346801;28;20139;-49
2024/01/17 15:39:18;;;;;;;14.77;8.70;;;;;;;10.24;45.10;97223.78;10359164;28;20029;-48
2024/01/17 15:44:17;;;;;;;11.00;9.32;;;;;;;10.13;45.33;97229.06;10356820;28;20140;-48
2024/01/17 15:49:16;;;;;;;11.63;10.05;;;;;;;10.02;45.87;97220.50;10342445;28;20029;-49
2024/01/17 15:54:15;;;;;;;13.73;10.75;;;;;;;9.75;45.50;97196.50;10341342;28;20056;-48
2024/01/17 15:59:14;;;;;;;12.25;9.80;;;;;;;9.79;46.06;97228.41;10357619;28;20066;-48
2024/01/17 16:04:13;;;;;;;10.25;8.50;;;;;;;9.63;46.35;97219.00;10352291;28;20033;-49
2024/01/17 16:09:13;;;;;;;10.82;9.73;;;;;;;9.50;47.04;97202.69;10355283;28;20581;-48
2024/01/17 16:14:12;;;;;;;13.43;9.07;;;;;;;9.68;47.00;97201.75;10355466;28;20210;-49
2024/01/17 16:19:11;;;;;;;14.55;10.50;;;;;;;9.37;46.54;97149.25;10353943;28;20762;-50
2024/01/17 16:24:11;;;;;;;11.25;10.07;;;;;;;9.59;47.41;97178.47;10350134;28;20136;-49
2024/01/17 16:29:10;;;;;;;11.65;9.55;;;;;;;8.60;46.96;97038.34;10347499;28;20124;-51
2024/01/17 16:34:09;;;;;;;9.27;8.15;;;;;;;9.32;47.35;97186.41;10360259;28;20032;-48
2024/01/17 16:39:12;;;;;;;12.57;9.30;;;;;;;9.44;47.68;97202.72;10358919;28;20143;-48
2024/01/17 16:44:10;;;;;;;9.77;8.68;;;;;;;9.37;47.85;97193.25;10359108;28;20137;-48
2024/01/17 16:49:10;;;;;;;12.15;7.95;;;;;;;9.31;47.95;97182.06;10359365;28;20033;-51
2024/01/17 16:54:09;;;;;;;10.48;8.45;;;;;;;9.33;47.79;97182.94;10360797;28;20053;-49
2024/01/17 16:59:11;;;;;;;11.38;7.43;;;;;;;9.25;47.22;97184.66;10367636;28;20525;-50
2024/01/17 17:04:10;;;;;;;8.90;7.25;;;;;;;9.15;47.43;97157.09;10367677;28;20509;-49
2024/01/17 17:09:12;;;;;;;9.50;8.07;;;;;;;9.03;47.93;97141.63;10368324;28;20044;-49
2024/01/17 17:14:11;;;;;;;8.32;7.35;;;;;;;8.98;48.43;97153.75;10368470;28;20048;-49
2024/01/17 17:19:10;;;;;;;9.65;7.35;;;;;;;8.87;48.51;97146.88;10368291;28;20066;-50
2024/01/17 17:24:09;;;;;;;10.18;7.90;;;;;;;8.85;48.47;97133.06;10367819;28;20123;-49
2024/01/17 17:29:08;;;;;;;12.15;8.52;;;;;;;9.09;48.83;97149.34;10367452;28;20483;-51
2024/01/17 17:34:07;;;;;;;9.18;8.02;;;;;;;8.73;49.13;97086.56;10366541;28;20459;-50
2024/01/17 17:39:06;;;;;;;9.30;7.97;;;;;;;7.74;48.64;96914.66;10366829;28;20570;-50
2024/01/17 17:44:06;;;;;;;10.57;7.90;;;;;;;9.10;49.11;97138.16;10366598;28;20055;-50
2024/01/17 17:49:06;;;;;;;12.63;7.63;;;;;;;9.14;48.66;97134.69;10367214;28;20024;-51
2024/01/17 17:54:05;;;;;;;7.93;7.15;;;;;;;9.04;48.96;97107.13;10365528;28;20116;-49
2024/01/17 17:59:04;;;;;;;8.82;7.88;;;;;;;9.05;48.90;97119.19;10364423;28;20064;-49
2024/01/17 18:04:03;;;;;;;7.50;6.78;;;;;;;9.28;48.90;97132.91;10365221;28;20131;-51
2024/01/17 18:09:02;;;;;;;8.80;7.35;;;;;;;9.09;48.81;97085.53;10363960;28;20072;-50
2024/01/17 18:14:02;;;;;;;9.18;6.57;;;;;;;9.34;49.17;97125.09;10364274;28;20052;-51
2024/01/17 18:19:01;;;;;;;10.00;7.88;;;;;;;9.32;49.13;97105.25;10362869;28;20127;-50
2024/01/17 18:24:00;;;;;;;8.18;7.22;;;;;;;9.22;49.29;97095.81;10365071;28;20037;-49
2024/01/17 18:28:59;;;;;;;8.00;6.93;;;;;;;9.40;48.74;97111.25;10365114;28;20125;-49
2024/01/17 18:33:58;;;;;;;9.82;8.02;;;;;;;9.02;48.96;97029.50;10363936;28;20029;-48
2024/01/17 18:38:57;;;;;;;8.07;6.82;;;;;;;9.11;48.67;97049.25;10362614;28;20056;-49
2024/01/17 18:43:56;;;;;;;7.05;6.30;;;;;;;9.43;49.01;97089.66;10362983;28;20035;-48
2024/01/17 18:48:56;;;;;;;8.73;7.32;;;;;;;9.47;48.89;97073.22;10363949;28;20064;-51
2024/01/17 18:53:56;;;;;;;8.27;7.40;;;;;;;9.48;49.24;97072.34;10363559;28;20088;-49
2024/01/17 18:58:55;;;;;;;7.90;6.25;;;;;;;9.56;49.20;97088.72;10363632;28;20068;-47
2024/01/17 19:03:54;;;;;;;8.55;7.05;;;;;;;9.70;48.33;97073.03;10363408;28;20108;-49
2024/01/17 19:08:54;;;;;;;7.43;6.38;;;;;;;9.80;48.86;97077.28;10363588;28;20025;-49
2024/01/17 19:13:53;;;;;;;8.38;7.57;;;;;;;9.96;48.19;97070.22;10363240;28;20120;-49
2024/01/17 19:18:52;;;;;;;8.77;6.65;;;;;;;9.89;48.09;97033.13;10360720;28;20132;-51
2024/01/17 19:23:51;;;;;;;7.43;6.70;;;;;;;9.95;48.28;97060.72;10362945;28;20136;-48
2024/01/17 19:28:50;;;;;;;7.50;6.72;;;;;;;9.85;48.75;97061.69;10362623;28;20502;-50
2024/01/17 19:33:50;;;;;;;7.38;6.68;;;;;;;9.81;48.24;97057.41;10362317;28;20557;-50
2024/01/17 19:38:50;;;;;;;8.07;6.38;;;;;;;9.81;48.77;97036.66;10362285;28;20123;-48
2024/01/17 19:43:49;;;;;;;6.53;5.82;;;;;;;9.68;48.35;97002.25;10361995;28;20550;-49
2024/01/17 19:48:49;;;;;;;8.00;6.50;;;;;;;9.86;48.37;97063.38;10362255;28;20064;-49
2024/01/17 19:53:49;;;;;;;7.68;6.00;;;;;;;9.54;48.45;97011.00;10361399;28;20060;-49
2024/01/17 19:58:51;;;;;;;7.45;6.72;;;;;;;10.01;48.22;97068.44;10361448;28;20052;-51
2024/01/17 20:03:50;;;;;;;8.02;6.47;;;;;;;10.16;47.95;97073.44;10361536;28;20136;-50
2024/01/17 20:08:50;;;;;;;9.10;7.50;;;;;;;9.03;48.44;96862.16;10359883;28;20048;-49
2024/01/17 20:13:49;;;;;;;;;;;;;;;10.13;48.12;97050.16;10361371;28;20064;-51
2024/01/17 20:18:48;;;;;;;7.85;6.20;;;;;;;9.86;48.27;97011.56;10361130;28;19999;-51
2024/01/17 20:23:47;;;;;;;8.45;7.20;;;;;;;10.11;48.43;97046.72;10360669;28;20157;-49
2024/01/17 20:28:47;;;;;;;8.88;6.45;;;;;;;10.07;48.66;97052.81;10360218;28;20470;-50
2024/01/17 20:33:46;;;;;;;;;;;;;;;10.11;48.92;97054.50;10361591;28;20140;-49
2024/01/17 20:38:45;;;;;;;7.95;6.30;;;;;;;10.18;48.98;97056.16;10358583;28;19932;-49
2024/01/17 20:43:45;;;;;;;;;;;;;;;10.20;48.97;97048.38;10361465;28;20081;-48
2024/01/17 20:48:43;;;;;;;6.25;5.60;;;;;;;9.25;49.44;96888.66;10359861;28;19952;-48
2024/01/17 20:53:42;;;;;;;7.32;6.20;;;;;;;10.02;48.30;97007.94;10360815;28;20060;-50
2024/01/17 20:58:41;;;;;;;8.05;7.25;;;;;;;10.22;48.79;97025.88;10359977;28;20021;-48
2024/01/17 21:03:40;;;;;;;6.75;6.13;;;;;;;10.32;48.68;97018.84;10358948;28;20041;-47
2024/01/17 21:08:39;;;;;;;6.43;5.82;;;;;;;10.22;48.79;97014.66;10360263;28;20116;-49
2024/01/17 21:13:38;;;;;;;6.18;5.55;;;;;;;10.18;48.47;97024.19;10360235;28;20037;-49
2024/01/17 21:18:37;;;;;;;6.85;6.07;;;;;;;10.10;49.25;96990.56;10360113;28;20031;-48
2024/01/17 21:23:36;;;;;;;7.57;6.18;;;;;;;10.19;48.97;96981.81;10360240;28;20478;-49
2024/01/17 21:28:35;;;;;;;7.28;6.43;;;;;;;10.27;49.10;96990.38;10359365;28;20140;-49
2024/01/17 21:33:34;;;;;;;9.75;6.68;;;;;;;10.33;49.11;96989.44;10359298;28;20100;-49
2024/01/17 21:38:33;;;;;;;7.57;6.88;;;;;;;10.22;49.00;96949.84;10358454;28;20064;-49
2024/01/17 21:43:32;;;;;;;6.93;5.45;;;;;;;9.99;49.26;96896.53;10363778;28;20032;-47
2024/01/17 21:48:31;;;;;;;6.40;5.47;;;;;;;10.57;48.79;96990.88;10366549;28;20033;-48
2024/01/17 21:53:30;;;;;;;9.55;6.35;;;;;;;10.46;49.00;96977.19;10366742;28;20474;-49
2024/01/17 21:58:29;;;;;;;7.35;5.95;;;;;;;10.55;49.17;96970.13;10365596;28;20121;-47
2024/01/17 22:03:28;;;;;;;7.03;6.32;;;;;;;10.32;48.80;96933.28;10363997;28;20029;-48
2024/01/17 22:08:27;;;;;;;8.10;5.65;;;;;;;10.59;48.83;96981.34;10364253;28;20076;-48
2024/01/17 22:13:26;;;;;;;;;;;;;;;10.44;49.78;96965.97;10365825;28;20055;-49
2024/01/17 22:18:25;;;;;;;6.45;5.72;;;;;;;10.44;48.57;96922.72;10364902;28;19913;-47
2024/01/17 22:23:24;;;;;;;7.75;6.07;;;;;;;10.52;49.22;96926.09;10364544;28;20051;-48
2024/01/17 22:28:23;;;;;;;6.75;6.15;;;;;;;10.54;48.74;96933.81;10364387;28;20028;-48
2024/01/17 22:33:23;;;;;;;7.65;6.00;;;;;;;10.62;48.99;96938.03;10364887;28;20534;-48
2024/01/17 22:38:22;;;;;;;7.53;6.45;;;;;;;10.65;48.58;96942.31;10363766;28;20537;-48
2024/01/17 22:43:22;;;;;;;8.10;6.07;;;;;;;10.55;48.97;96940.75;10364117;28;20902;-48
2024/01/17 22:48:21;;;;;;;6.38;5.78;;;;;;;10.49;48.43;96926.09;10363051;28;20056;-48
2024/01/17 22:53:20;;;;;;;6.93;5.88;;;;;;;10.57;48.66;96936.41;10363857;28;20029;-49
2024/01/17 22:58:19;;;;;;;7.82;6.53;;;;;;;10.54;49.51;96928.63;10363141;28;20060;-48
2024/01/17 23:03:18;;;;;;;6.68;6.00;;;;;;;10.14;49.67;96873.00;10363612;28;20108;-49
2024/01/17 23:08:17;;;;;;;6.60;6.00;;;;;;;10.30;49.43;96896.13;10362806;28;20039;-49
2024/01/17 23:13:19;;;;;;;7.88;6.38;;;;;;;10.41;49.95;96917.59;10363295;28;20043;-51